Warners, New York
Current Conditions -  °F | °C
As of 12:54 PM on Sunday 21 Dec 2014 (Local Time) from KSYR Reporting Station
Light Snow Light Snow  
Wind Chill: -1°   Ceiling: 2600
Heat Index: -1°   Visibility: 7mi
Dew Point: -4°   Wind: 0mph
Humidity: 82%   Direction: NA
Pressure: 30.31"   Gusts: NA
Location:  43.09°N, 76.33°W
Report Text: KSYR 211754Z 00000KT 7SM -SN BKN026 OVC032 M01/M04 A3031 RMK AO2 SLP266 P0000 60000 T10111039 11006 21033 58010 $
Loading
Personal Weather Stations






























Interactive Weather Map New forecast layout! Learn more

10-Day Weather Forecast

Advertisements
Track Severe Weather on mobile